Terminal Aerodrome Forecast
Issued by NWS Charleston, WV

Current Version | Previous Version | Text Only | Print | Product List | Glossary Off
Versions: 1 2 3 4 5 6 7 8 9 10 11 12 13 14 15 16 17 18 19 20 21 22 23 24 25 26 27 28 29 30

000
FTUS41 KRLX 262300
TAFBKW
TAF
KBKW 262337Z 2700/2724 33010KT 3SM -RA BKN005
     FM270100 33009KT 5SM -RA OVC005
     FM270230 33009KT P6SM -RA OVC010
     FM270400 33008KT P6SM -RA OVC012
     FM270700 33008KT P6SM OVC015
     FM271600 32008G14KT P6SM BKN025
     FM271800 32008G14KT P6SM BKN035=

USA.gov is the U.S. government's official web portal to all federal, state and local government web resources and services.